createdAt,value
2018-12-22T00:00:09.363Z,994.28
2018-12-22T00:01:09.343Z,994.27
2018-12-22T00:02:09.333Z,994.35
2018-12-22T00:03:09.318Z,994.39
2018-12-22T00:04:09.323Z,994.28
2018-12-22T00:05:09.300Z,994.41
2018-12-22T00:06:09.293Z,994.36
2018-12-22T00:07:09.280Z,994.44
2018-12-22T00:08:09.268Z,994.40
2018-12-22T00:09:09.266Z,994.36
2018-12-22T00:10:09.244Z,994.42
2018-12-22T00:11:09.233Z,994.40
2018-12-22T00:12:09.235Z,994.42
2018-12-22T00:13:09.211Z,994.36
2018-12-22T00:14:09.210Z,994.49
2018-12-22T00:15:09.189Z,994.37
2018-12-22T00:16:09.181Z,994.40
2018-12-22T00:17:09.171Z,994.37
2018-12-22T00:18:09.159Z,994.27
2018-12-22T00:19:09.158Z,994.33
2018-12-22T00:20:09.136Z,994.38
2018-12-22T00:21:09.125Z,994.38
2018-12-22T00:22:09.115Z,994.44
2018-12-22T00:23:09.104Z,994.47
2018-12-22T00:24:09.111Z,994.40
2018-12-22T00:25:09.084Z,994.45
2018-12-22T00:26:09.072Z,994.47
2018-12-22T00:27:09.060Z,994.42
2018-12-22T00:28:09.052Z,994.42
2018-12-22T00:29:09.060Z,994.54
2018-12-22T00:30:09.031Z,994.46
2018-12-22T00:31:09.019Z,994.49
2018-12-22T00:32:09.010Z,994.52
2018-12-22T00:33:09.008Z,994.46
2018-12-22T00:34:09.182Z,994.56
2018-12-22T00:35:08.977Z,994.55
2018-12-22T00:36:08.968Z,994.58
2018-12-22T00:37:08.966Z,994.62
2018-12-22T00:38:08.945Z,994.61
2018-12-22T00:39:08.930Z,994.62
2018-12-22T00:40:08.936Z,994.68
2018-12-22T00:41:08.913Z,994.71
2018-12-22T00:42:08.899Z,994.71
2018-12-22T00:43:08.891Z,994.78
2018-12-22T00:44:08.879Z,994.73
2018-12-22T00:45:08.886Z,994.62
2018-12-22T00:46:08.856Z,994.75
2018-12-22T00:47:08.850Z,994.73
2018-12-22T00:48:08.837Z,994.71
2018-12-22T00:49:08.825Z,994.79
2018-12-22T00:50:08.825Z,994.74
2018-12-22T00:51:08.807Z,994.84
2018-12-22T00:52:08.794Z,994.75
2018-12-22T00:53:08.790Z,994.76
2018-12-22T00:54:08.772Z,994.81
2018-12-22T00:55:08.780Z,994.91
2018-12-22T00:56:08.752Z,994.86
2018-12-22T00:57:08.739Z,994.87
2018-12-22T00:58:08.732Z,994.92
2018-12-22T00:59:08.717Z,994.93
2018-12-22T01:00:08.717Z,994.93
2018-12-22T01:01:08.697Z,994.95
2018-12-22T01:02:08.686Z,995.01
2018-12-22T01:03:08.679Z,994.98
2018-12-22T01:04:08.663Z,995.03
2018-12-22T01:05:08.665Z,995.07
2018-12-22T01:06:08.642Z,995.13
2018-12-22T01:07:08.632Z,995.20
2018-12-22T01:08:08.621Z,995.17
2018-12-22T01:09:08.608Z,995.23
2018-12-22T01:10:08.610Z,995.23
2018-12-22T01:11:08.591Z,995.22
2018-12-22T01:12:08.578Z,995.19
2018-12-22T01:13:08.575Z,995.31
2018-12-22T01:14:08.556Z,995.35
2018-12-22T01:15:08.573Z,995.36
2018-12-22T01:16:08.536Z,995.41
2018-12-22T01:17:09.194Z,995.45
2018-12-22T01:18:08.512Z,995.40
2018-12-22T01:19:08.502Z,995.42
2018-12-22T01:20:08.504Z,995.39
2018-12-22T01:21:08.481Z,995.51
2018-12-22T01:22:08.486Z,995.56
2018-12-22T01:23:08.456Z,995.58
2018-12-22T01:24:08.448Z,995.59
2018-12-22T01:25:08.468Z,995.67
2018-12-22T01:26:08.432Z,995.63
2018-12-22T01:27:08.415Z,995.72
2018-12-22T01:28:08.405Z,995.57
2018-12-22T01:29:08.396Z,995.60
2018-12-22T01:30:08.400Z,995.57
2018-12-22T01:31:08.385Z,995.61
2018-12-22T01:32:08.365Z,995.58
2018-12-22T01:33:08.354Z,995.66
2018-12-22T01:34:08.343Z,995.65
2018-12-22T01:35:08.329Z,995.70
2018-12-22T01:36:08.331Z,995.64
2018-12-22T01:37:08.308Z,995.60
2018-12-22T01:38:08.300Z,995.65
2018-12-22T01:39:08.301Z,995.67
2018-12-22T01:40:08.275Z,995.61
2018-12-22T01:41:08.276Z,995.64
2018-12-22T01:42:08.255Z,995.61
2018-12-22T01:43:08.244Z,995.62
2018-12-22T01:44:08.234Z,995.70
2018-12-22T01:45:08.227Z,995.60
2018-12-22T01:46:08.224Z,995.55
2018-12-22T01:47:08.198Z,995.62
2018-12-22T01:48:08.195Z,995.66
2018-12-22T01:49:08.177Z,995.64
2018-12-22T01:50:08.171Z,995.65
2018-12-22T01:51:08.164Z,995.74
2018-12-22T01:52:08.144Z,995.76
2018-12-22T01:53:08.134Z,995.70
2018-12-22T01:54:08.124Z,995.66
2018-12-22T01:55:08.112Z,995.64
2018-12-22T01:56:08.113Z,995.67
2018-12-22T01:57:08.091Z,995.67
2018-12-22T01:58:08.121Z,995.72
2018-12-22T01:59:08.069Z,995.68
2018-12-22T02:00:08.065Z,995.79
2018-12-22T02:01:08.057Z,995.81
2018-12-22T02:02:08.036Z,995.84
2018-12-22T02:03:08.026Z,995.74
2018-12-22T02:04:08.016Z,995.63
2018-12-22T02:05:08.003Z,995.77
2018-12-22T02:06:08.005Z,995.74
2018-12-22T02:07:07.983Z,995.75
2018-12-22T02:08:07.985Z,995.63
2018-12-22T02:09:07.964Z,995.73
2018-12-22T02:10:07.952Z,995.70
2018-12-22T02:11:07.981Z,995.75
2018-12-22T02:12:07.931Z,995.96
2018-12-22T02:13:07.917Z,995.97
2018-12-22T02:14:07.909Z,995.96
2018-12-22T02:15:07.898Z,995.95
2018-12-22T02:16:07.886Z,995.88
2018-12-22T02:17:07.891Z,995.95
2018-12-22T02:18:07.864Z,996.05
2018-12-22T02:19:07.857Z,995.95
2018-12-22T02:20:07.844Z,995.94
2018-12-22T02:21:07.836Z,996.08
2018-12-22T02:22:07.833Z,996.08
2018-12-22T02:23:07.809Z,996.05
2018-12-22T02:24:07.803Z,996.05
2018-12-22T02:25:07.791Z,996.04
2018-12-22T02:26:07.806Z,996.05
2018-12-22T02:27:07.779Z,996.10
2018-12-22T02:28:07.756Z,996.07
2018-12-22T02:29:07.747Z,996.17
2018-12-22T02:30:07.739Z,996.26
2018-12-22T02:31:07.727Z,996.14
2018-12-22T02:32:07.727Z,996.16
2018-12-22T02:33:07.713Z,996.16
2018-12-22T02:34:07.694Z,996.20
2018-12-22T02:35:07.682Z,996.14
2018-12-22T02:36:07.677Z,996.23
2018-12-22T02:37:07.679Z,996.20
2018-12-22T02:38:07.648Z,996.34
2018-12-22T02:39:07.641Z,996.14
2018-12-22T02:40:07.654Z,996.28
2018-12-22T02:41:07.619Z,996.21
2018-12-22T02:42:07.621Z,996.20
2018-12-22T02:43:07.598Z,996.29
2018-12-22T02:44:07.585Z,996.17
2018-12-22T02:45:07.575Z,996.22
2018-12-22T02:46:07.563Z,996.17
2018-12-22T02:47:07.563Z,996.17
2018-12-22T02:48:07.545Z,996.24
2018-12-22T02:49:07.535Z,996.30
2018-12-22T02:50:07.525Z,996.36
2018-12-22T02:51:07.510Z,996.27
2018-12-22T02:52:07.508Z,996.26
2018-12-22T02:53:07.494Z,996.20
2018-12-22T02:54:07.482Z,996.14
2018-12-22T02:55:07.467Z,996.27
2018-12-22T02:56:07.555Z,996.33
2018-12-22T02:57:07.456Z,996.34
2018-12-22T02:58:07.435Z,996.32
2018-12-22T02:59:07.424Z,996.36
2018-12-22T03:00:07.413Z,996.37
2018-12-22T03:01:07.402Z,996.35
2018-12-22T03:02:07.405Z,996.36
2018-12-22T03:03:07.381Z,996.24
2018-12-22T03:04:07.369Z,996.26
2018-12-22T03:05:07.371Z,996.35
2018-12-22T03:06:07.349Z,996.29
2018-12-22T03:07:07.350Z,996.40
2018-12-22T03:08:07.328Z,996.29
2018-12-22T03:09:07.317Z,996.37
2018-12-22T03:10:07.306Z,996.27
2018-12-22T03:11:07.296Z,996.36
2018-12-22T03:12:07.294Z,996.34
2018-12-22T03:13:07.273Z,996.35
2018-12-22T03:14:07.260Z,996.45
2018-12-22T03:15:07.254Z,996.44
2018-12-22T03:16:07.246Z,996.48
2018-12-22T03:17:07.259Z,996.43
2018-12-22T03:18:07.218Z,996.49
2018-12-22T03:19:07.209Z,996.42
2018-12-22T03:20:07.205Z,996.40
2018-12-22T03:21:07.194Z,996.50
2018-12-22T03:22:07.181Z,996.36
2018-12-22T03:23:07.178Z,996.43
2018-12-22T03:24:07.155Z,996.48
2018-12-22T03:25:07.145Z,996.50
2018-12-22T03:26:07.135Z,996.45
2018-12-22T03:27:07.125Z,996.56
2018-12-22T03:28:07.120Z,996.60
2018-12-22T03:29:15.276Z,996.56
2018-12-22T03:30:08.091Z,996.65
2018-12-22T03:31:07.088Z,996.51
2018-12-22T03:32:07.076Z,996.55
2018-12-22T03:33:07.070Z,996.70
2018-12-22T03:34:07.047Z,996.52
2018-12-22T03:35:07.038Z,996.50
2018-12-22T03:36:07.026Z,996.63
2018-12-22T03:37:07.014Z,996.62
2018-12-22T03:38:07.014Z,996.64
2018-12-22T03:39:06.992Z,996.67
2018-12-22T03:40:06.981Z,996.65
2018-12-22T03:41:06.970Z,996.73
2018-12-22T03:42:06.963Z,996.83
2018-12-22T03:43:06.964Z,996.90
2018-12-22T03:44:06.940Z,996.81
2018-12-22T03:45:06.928Z,996.92
2018-12-22T03:46:06.925Z,996.96
2018-12-22T03:47:06.914Z,996.86
2018-12-22T03:48:06.908Z,996.87
2018-12-22T03:49:06.890Z,996.92
2018-12-22T03:50:06.874Z,996.93
2018-12-22T03:51:06.866Z,997.00
2018-12-22T03:52:06.946Z,997.05
2018-12-22T03:53:06.867Z,997.11
2018-12-22T03:54:06.847Z,997.10
2018-12-22T03:55:06.821Z,997.12
2018-12-22T03:56:06.810Z,997.12
2018-12-22T03:57:06.799Z,997.17
2018-12-22T03:58:06.803Z,997.20
2018-12-22T03:59:06.779Z,997.18
2018-12-22T04:00:06.766Z,997.14
2018-12-22T04:01:06.755Z,997.15
2018-12-22T04:02:06.746Z,997.04
2018-12-22T04:03:06.743Z,997.06
2018-12-22T04:04:06.725Z,997.05
2018-12-22T04:05:06.720Z,997.17
2018-12-22T04:06:06.701Z,997.15
2018-12-22T04:07:06.697Z,997.09
2018-12-22T04:08:06.690Z,997.10
2018-12-22T04:09:09.064Z,997.19
2018-12-22T04:10:06.662Z,997.16
2018-12-22T04:11:06.647Z,997.17
2018-12-22T04:12:06.641Z,997.11
2018-12-22T04:13:06.639Z,997.16
2018-12-22T04:14:06.615Z,997.09
2018-12-22T04:15:06.608Z,997.09
2018-12-22T04:16:06.596Z,997.05
2018-12-22T04:17:06.583Z,997.13
2018-12-22T04:18:06.584Z,997.15
2018-12-22T04:19:06.563Z,997.13
2018-12-22T04:20:06.549Z,997.16
2018-12-22T04:21:06.544Z,997.13
2018-12-22T04:22:06.530Z,997.18
2018-12-22T04:23:06.530Z,997.15
2018-12-22T04:24:06.509Z,997.13
2018-12-22T04:25:06.518Z,997.18
2018-12-22T04:26:06.486Z,997.19
2018-12-22T04:27:06.476Z,997.25
2018-12-22T04:28:06.475Z,997.28
2018-12-22T04:29:06.453Z,997.17
2018-12-22T04:30:06.444Z,997.23
2018-12-22T04:31:06.464Z,997.28
2018-12-22T04:32:06.422Z,997.40
2018-12-22T04:33:06.434Z,997.34
2018-12-22T04:34:06.401Z,997.35
2018-12-22T04:35:06.389Z,997.36
2018-12-22T04:36:06.378Z,997.36
2018-12-22T04:37:06.370Z,997.34
2018-12-22T04:38:06.385Z,997.40
2018-12-22T04:39:06.345Z,997.27
2018-12-22T04:40:06.337Z,997.37
2018-12-22T04:41:06.325Z,997.45
2018-12-22T04:42:06.316Z,997.48
2018-12-22T04:43:06.303Z,997.40
2018-12-22T04:44:06.310Z,997.46
2018-12-22T04:45:06.282Z,997.51
2018-12-22T04:46:06.269Z,997.48
2018-12-22T04:47:06.267Z,997.45
2018-12-22T04:48:06.250Z,997.55
2018-12-22T04:49:06.255Z,997.60
2018-12-22T04:50:06.228Z,997.47
2018-12-22T04:51:06.228Z,997.37
2018-12-22T04:52:06.209Z,997.42
2018-12-22T04:53:06.195Z,997.46
2018-12-22T04:54:06.199Z,997.43
2018-12-22T04:55:06.175Z,997.47
2018-12-22T04:56:06.161Z,997.39
2018-12-22T04:57:06.162Z,997.44
2018-12-22T04:58:06.143Z,997.50
2018-12-22T04:59:06.143Z,997.43
2018-12-22T05:00:06.138Z,997.38
2018-12-22T05:01:06.106Z,997.32
2018-12-22T05:02:06.099Z,997.40
2018-12-22T05:03:06.086Z,997.36
2018-12-22T05:04:06.089Z,997.44
2018-12-22T05:05:06.065Z,997.44
2018-12-22T05:06:06.060Z,997.48
2018-12-22T05:07:06.044Z,997.45
2018-12-22T05:08:06.034Z,997.53
2018-12-22T05:09:06.034Z,997.52
2018-12-22T05:10:06.013Z,997.54
2018-12-22T05:11:06.003Z,997.62
2018-12-22T05:12:05.992Z,997.54
2018-12-22T05:13:05.981Z,997.51
2018-12-22T05:14:05.982Z,997.61
2018-12-22T05:15:05.971Z,997.59
2018-12-22T05:16:05.951Z,997.57
2018-12-22T05:17:05.943Z,997.63
2018-12-22T05:18:05.927Z,997.65
2018-12-22T05:19:05.945Z,997.69
2018-12-22T05:20:05.904Z,997.66
2018-12-22T05:21:05.895Z,997.59
2018-12-22T05:22:05.887Z,997.68
2018-12-22T05:23:05.875Z,997.66
2018-12-22T05:24:05.863Z,997.61
2018-12-22T05:25:05.869Z,997.67
2018-12-22T05:26:05.861Z,997.66
2018-12-22T05:27:05.836Z,997.70
2018-12-22T05:28:05.817Z,997.67
2018-12-22T05:29:05.818Z,997.56
2018-12-22T05:30:05.810Z,997.70
2018-12-22T05:31:05.786Z,997.67
2018-12-22T05:32:05.784Z,997.64
2018-12-22T05:33:05.767Z,997.71
2018-12-22T05:34:05.759Z,997.72
2018-12-22T05:35:05.757Z,997.78
2018-12-22T05:36:05.733Z,997.72
2018-12-22T05:37:05.723Z,997.74
2018-12-22T05:38:05.719Z,997.67
2018-12-22T05:39:05.699Z,997.74
2018-12-22T05:40:05.719Z,997.76
2018-12-22T05:41:05.679Z,997.72
2018-12-22T05:42:05.674Z,997.72
2018-12-22T05:43:05.657Z,997.82
2018-12-22T05:44:05.647Z,997.72
2018-12-22T05:45:05.700Z,997.72
2018-12-22T05:46:05.622Z,997.79
2018-12-22T05:47:05.614Z,997.82
2018-12-22T05:48:05.602Z,997.78
2018-12-22T05:49:05.592Z,997.79
2018-12-22T05:50:05.580Z,997.72
2018-12-22T05:51:05.582Z,997.77
2018-12-22T05:52:05.563Z,997.85
2018-12-22T05:53:05.551Z,997.78
2018-12-22T05:54:05.540Z,997.82
2018-12-22T05:55:05.529Z,997.86
2018-12-22T05:56:05.531Z,997.86
2018-12-22T05:57:05.508Z,997.88
2018-12-22T05:58:05.500Z,997.84
2018-12-22T05:59:05.487Z,997.80
2018-12-22T06:00:05.474Z,997.81
2018-12-22T06:01:05.500Z,997.88
2018-12-22T06:02:05.456Z,997.85
2018-12-22T06:03:05.442Z,997.92
2018-12-22T06:04:05.433Z,997.83
2018-12-22T06:05:05.422Z,997.89
2018-12-22T06:06:05.425Z,997.86
2018-12-22T06:07:05.402Z,997.91
2018-12-22T06:08:05.398Z,997.89
2018-12-22T06:09:05.378Z,997.90
2018-12-22T06:10:05.372Z,997.87
2018-12-22T06:11:05.379Z,997.81
2018-12-22T06:12:05.353Z,997.87
2018-12-22T06:13:05.339Z,997.92
2018-12-22T06:14:05.325Z,997.90
2018-12-22T06:15:05.315Z,997.82
2018-12-22T06:16:05.316Z,997.85
2018-12-22T06:17:05.308Z,997.87
2018-12-22T06:18:05.284Z,997.90
2018-12-22T06:19:05.277Z,997.91
2018-12-22T06:20:05.267Z,997.90
2018-12-22T06:21:05.297Z,997.91
2018-12-22T06:22:05.243Z,997.94
2018-12-22T06:23:05.229Z,997.88
2018-12-22T06:24:05.222Z,997.92
2018-12-22T06:25:05.212Z,997.98
2018-12-22T06:26:05.197Z,997.93
2018-12-22T06:27:05.201Z,997.93
2018-12-22T06:28:05.176Z,997.93
2018-12-22T06:29:05.167Z,997.92
2018-12-22T06:30:09.177Z,997.91
2018-12-22T06:31:05.145Z,997.93
2018-12-22T06:32:05.155Z,997.89
2018-12-22T06:33:05.143Z,997.94
2018-12-22T06:34:05.115Z,997.94
2018-12-22T06:35:05.101Z,997.95
2018-12-22T06:36:05.092Z,997.94
2018-12-22T06:37:05.094Z,997.93
2018-12-22T06:38:05.071Z,997.92
2018-12-22T06:39:05.065Z,998.02
2018-12-22T06:40:05.046Z,998.05
2018-12-22T06:41:05.040Z,997.92
2018-12-22T06:42:05.039Z,998.06
2018-12-22T06:43:05.016Z,998.07
2018-12-22T06:44:05.009Z,998.07
2018-12-22T06:45:05.003Z,998.06
2018-12-22T06:46:05.011Z,998.12
2018-12-22T06:47:04.988Z,998.10
2018-12-22T06:48:04.966Z,998.19
2018-12-22T06:49:04.965Z,998.11
2018-12-22T06:50:04.945Z,998.18
2018-12-22T06:51:04.931Z,998.18
2018-12-22T06:52:04.935Z,998.19
2018-12-22T06:53:04.912Z,998.18
2018-12-22T06:54:04.902Z,998.20
2018-12-22T06:55:04.889Z,998.15
2018-12-22T06:56:04.887Z,998.31
2018-12-22T06:57:04.879Z,998.38
2018-12-22T06:58:04.856Z,998.34
2018-12-22T06:59:04.847Z,998.35
2018-12-22T07:00:04.839Z,998.31
2018-12-22T07:01:04.827Z,998.41
2018-12-22T07:02:04.849Z,998.36
2018-12-22T07:03:04.807Z,998.39
2018-12-22T07:04:04.795Z,998.40
2018-12-22T07:05:04.786Z,998.43
2018-12-22T07:06:04.770Z,998.41
2018-12-22T07:07:04.763Z,998.44
2018-12-22T07:08:04.764Z,998.47
2018-12-22T07:09:04.739Z,998.47
2018-12-22T07:10:04.729Z,998.52
2018-12-22T07:11:04.718Z,998.53
2018-12-22T07:12:04.706Z,998.54
2018-12-22T07:13:04.711Z,998.60
2018-12-22T07:14:04.687Z,998.59
2018-12-22T07:15:04.676Z,998.57
2018-12-22T07:16:04.665Z,998.56
2018-12-22T07:17:04.652Z,998.59
2018-12-22T07:18:04.659Z,998.61
2018-12-22T07:19:04.635Z,998.59
2018-12-22T07:20:04.620Z,998.57
2018-12-22T07:21:04.622Z,998.67
2018-12-22T07:22:04.601Z,998.67
2018-12-22T07:23:04.600Z,998.67
2018-12-22T07:24:04.579Z,998.64
2018-12-22T07:25:04.567Z,998.71
2018-12-22T07:26:04.556Z,998.66
2018-12-22T07:27:04.546Z,998.64
2018-12-22T07:28:04.575Z,998.72
2018-12-22T07:29:04.525Z,998.66
2018-12-22T07:30:04.513Z,998.72
2018-12-22T07:31:04.507Z,998.70
2018-12-22T07:32:04.501Z,998.73
2018-12-22T07:33:04.483Z,998.74
2018-12-22T07:34:04.481Z,998.75
2018-12-22T07:35:04.460Z,998.76
2018-12-22T07:36:04.451Z,998.76
2018-12-22T07:37:04.464Z,998.82
2018-12-22T07:38:04.426Z,998.81
2018-12-22T07:39:04.435Z,998.79
2018-12-22T07:40:04.408Z,998.78
2018-12-22T07:41:04.397Z,998.81
2018-12-22T07:42:04.386Z,998.79
2018-12-22T07:43:04.380Z,998.85
2018-12-22T07:44:04.381Z,998.81
2018-12-22T07:45:04.355Z,998.81
2018-12-22T07:46:04.342Z,998.83
2018-12-22T07:47:04.331Z,998.78
2018-12-22T07:48:04.324Z,998.83
2018-12-22T07:49:04.329Z,998.85
2018-12-22T07:50:04.334Z,998.86
2018-12-22T07:51:04.293Z,998.86
2018-12-22T07:52:04.289Z,998.77
2018-12-22T07:53:04.275Z,998.85
2018-12-22T07:54:04.267Z,998.85
2018-12-22T07:55:04.246Z,998.86
2018-12-22T07:56:04.238Z,998.84
2018-12-22T07:57:04.224Z,998.90
2018-12-22T07:58:04.220Z,998.86
2018-12-22T07:59:04.216Z,998.93
2018-12-22T08:00:04.194Z,998.94
2018-12-22T08:01:04.181Z,998.95
2018-12-22T08:02:04.170Z,998.99
2018-12-22T08:03:04.162Z,998.88
2018-12-22T08:04:04.162Z,998.92
2018-12-22T08:05:04.136Z,998.89
2018-12-22T08:06:04.129Z,998.96
2018-12-22T08:07:04.119Z,998.90
2018-12-22T08:08:04.105Z,998.90
2018-12-22T08:09:04.123Z,998.97
2018-12-22T08:10:04.083Z,998.96
2018-12-22T08:11:04.074Z,998.99
2018-12-22T08:12:04.061Z,999.01
2018-12-22T08:13:04.063Z,999.01
2018-12-22T08:14:04.052Z,999.03
2018-12-22T08:15:04.031Z,999.07
2018-12-22T08:16:04.021Z,999.03
2018-12-22T08:17:04.009Z,999.04
2018-12-22T08:18:04.004Z,999.02
2018-12-22T08:19:03.998Z,999.09
2018-12-22T08:20:03.976Z,999.11
2018-12-22T08:21:03.966Z,999.05
2018-12-22T08:22:03.953Z,999.04
2018-12-22T08:23:03.943Z,999.09
2018-12-22T08:24:03.955Z,999.04
2018-12-22T08:25:03.945Z,999.14
2018-12-22T08:26:03.914Z,999.11
2018-12-22T08:27:03.902Z,999.15
2018-12-22T08:28:03.891Z,999.15
2018-12-22T08:29:03.956Z,999.16
2018-12-22T08:30:03.870Z,999.25
2018-12-22T08:31:03.860Z,999.26
2018-12-22T08:32:03.848Z,999.32
2018-12-22T08:33:03.841Z,999.28
2018-12-22T08:34:03.825Z,999.30
2018-12-22T08:35:03.826Z,999.35
2018-12-22T08:36:03.812Z,999.30
2018-12-22T08:37:03.807Z,999.40
2018-12-22T08:38:03.786Z,999.40
2018-12-22T08:39:03.774Z,999.37
2018-12-22T08:40:03.780Z,999.42
2018-12-22T08:41:03.764Z,999.51
2018-12-22T08:42:03.740Z,999.46
2018-12-22T08:43:03.731Z,999.51
2018-12-22T08:44:03.727Z,999.50
2018-12-22T08:45:03.724Z,999.55
2018-12-22T08:46:03.698Z,999.56
2018-12-22T08:47:03.690Z,999.59
2018-12-22T08:48:03.676Z,999.61
2018-12-22T08:49:03.668Z,999.60
2018-12-22T08:50:08.934Z,999.64
2018-12-22T08:51:04.646Z,999.66
2018-12-22T08:52:03.637Z,999.68
2018-12-22T08:53:03.625Z,999.66
2018-12-22T08:54:03.614Z,999.67
2018-12-22T08:55:03.632Z,999.72
2018-12-22T08:56:03.592Z,999.75
2018-12-22T08:57:03.596Z,999.70
2018-12-22T08:58:03.570Z,999.78
2018-12-22T08:59:03.558Z,999.75
2018-12-22T09:00:03.559Z,999.75
2018-12-22T09:01:03.544Z,999.83
2018-12-22T09:02:03.531Z,999.84
2018-12-22T09:03:03.516Z,999.83
2018-12-22T09:04:03.504Z,999.90
2018-12-22T09:05:03.509Z,999.90
2018-12-22T09:06:03.486Z,999.92
2018-12-22T09:07:03.475Z,999.96
2018-12-22T09:08:03.473Z,999.92
2018-12-22T09:09:03.449Z,999.90
2018-12-22T09:10:03.453Z,999.93
2018-12-22T09:11:04.395Z,999.95
2018-12-22T09:12:03.420Z,999.98
2018-12-22T09:13:03.429Z,1000.01
2018-12-22T09:14:03.398Z,999.97
2018-12-22T09:15:03.436Z,999.97
2018-12-22T09:16:03.382Z,999.98
2018-12-22T09:17:03.368Z,999.99
2018-12-22T09:18:03.356Z,1000.03
2018-12-22T09:19:03.344Z,1000.06
2018-12-22T09:20:03.336Z,1000.03
2018-12-22T09:21:03.340Z,1000.06
2018-12-22T09:22:03.311Z,1000.05
2018-12-22T09:23:03.301Z,1000.04
2018-12-22T09:24:03.291Z,1000.06
2018-12-22T09:25:03.278Z,1000.09
2018-12-22T09:26:03.287Z,1000.04
2018-12-22T09:27:03.257Z,1000.04
2018-12-22T09:28:03.249Z,1000.04
2018-12-22T09:29:03.238Z,1000.05
2018-12-22T09:30:03.230Z,1000.05
2018-12-22T09:31:03.232Z,1000.02
2018-12-22T09:32:03.206Z,1000.02
2018-12-22T09:33:03.233Z,999.99
2018-12-22T09:34:03.184Z,1000.02
2018-12-22T09:35:03.217Z,1000.00
2018-12-22T09:36:03.207Z,1000.02
2018-12-22T09:37:03.152Z,1000.06
2018-12-22T09:38:03.142Z,1000.11
2018-12-22T09:39:03.178Z,1000.10
2018-12-22T09:40:03.121Z,1000.15
2018-12-22T09:41:03.128Z,1000.18
2018-12-22T09:42:03.104Z,1000.17
2018-12-22T09:43:03.089Z,1000.18
2018-12-22T09:44:03.077Z,1000.14
2018-12-22T09:45:03.113Z,1000.18
2018-12-22T09:46:03.069Z,1000.17
2018-12-22T09:47:03.049Z,1000.19
2018-12-22T09:48:03.041Z,1000.19
2018-12-22T09:49:03.033Z,1000.19
2018-12-22T09:50:03.017Z,1000.21
2018-12-22T09:51:03.021Z,1000.25
2018-12-22T09:52:03.040Z,1000.30
2018-12-22T09:53:03.005Z,1000.24
2018-12-22T09:54:02.976Z,1000.28
2018-12-22T09:55:02.999Z,1000.23
2018-12-22T09:56:02.962Z,1000.24
2018-12-22T09:57:02.940Z,1000.22
2018-12-22T09:58:02.934Z,1000.25
2018-12-22T09:59:02.918Z,1000.25
2018-12-22T10:00:02.910Z,1000.25
2018-12-22T10:01:09.296Z,1000.28
2018-12-22T10:02:03.902Z,1000.29
2018-12-22T10:03:02.884Z,1000.35
2018-12-22T10:04:02.866Z,1000.35
2018-12-22T10:05:02.853Z,1000.40
2018-12-22T10:06:02.845Z,1000.39
2018-12-22T10:07:02.841Z,1000.40
2018-12-22T10:08:02.820Z,1000.39
2018-12-22T10:09:02.809Z,1000.34
2018-12-22T10:10:02.798Z,1000.47
2018-12-22T10:11:02.794Z,1000.48
2018-12-22T10:12:02.787Z,1000.50
2018-12-22T10:13:02.766Z,1000.58
2018-12-22T10:14:02.763Z,1000.58
2018-12-22T10:15:02.748Z,1000.54
2018-12-22T10:16:02.738Z,1000.58
2018-12-22T10:17:04.864Z,1000.71
2018-12-22T10:18:02.722Z,1000.61
2018-12-22T10:19:02.715Z,1000.61
2018-12-22T10:20:02.693Z,1000.72
2018-12-22T10:21:02.814Z,1000.79
2018-12-22T10:22:02.721Z,1000.81
2018-12-22T10:23:02.663Z,1000.73
2018-12-22T10:24:02.652Z,1000.92
2018-12-22T10:25:02.636Z,1000.79
2018-12-22T10:26:02.630Z,1000.76
2018-12-22T10:27:02.629Z,1000.82
2018-12-22T10:28:02.607Z,1000.82
2018-12-22T10:29:02.597Z,1000.85
2018-12-22T10:30:02.592Z,1000.93
2018-12-22T10:31:02.590Z,1000.91
2018-12-22T10:32:02.581Z,1000.96
2018-12-22T10:33:02.552Z,1000.97
2018-12-22T10:34:02.645Z,1001.02
2018-12-22T10:35:02.531Z,1001.02
2018-12-22T10:36:03.807Z,1001.02
2018-12-22T10:37:02.548Z,1001.06
2018-12-22T10:38:02.498Z,1001.06
2018-12-22T10:39:02.587Z,1001.11
2018-12-22T10:40:02.482Z,1001.08
2018-12-22T10:41:02.468Z,1001.14
2018-12-22T10:42:02.485Z,1001.14
2018-12-22T10:43:02.446Z,1001.25
2018-12-22T10:44:02.435Z,1001.29
2018-12-22T10:45:02.423Z,1001.22
2018-12-22T10:46:02.415Z,1001.26
2018-12-22T10:47:02.414Z,1001.31
2018-12-22T10:48:02.394Z,1001.33
2018-12-22T10:49:02.385Z,1001.39
2018-12-22T10:50:02.373Z,1001.46
2018-12-22T10:51:02.493Z,1001.41
2018-12-22T10:52:02.363Z,1001.44
2018-12-22T10:53:02.341Z,1001.40
2018-12-22T10:54:02.326Z,1001.41
2018-12-22T10:55:02.314Z,1001.39
2018-12-22T10:56:02.312Z,1001.40
2018-12-22T10:57:04.127Z,1001.47
2018-12-22T10:58:02.285Z,1001.44
2018-12-22T10:59:02.272Z,1001.48
2018-12-22T11:00:02.266Z,1001.56
2018-12-22T11:01:02.250Z,1001.54
2018-12-22T11:02:02.242Z,1001.59
2018-12-22T11:03:02.243Z,1001.59
2018-12-22T11:04:02.219Z,1001.60
2018-12-22T11:05:02.216Z,1001.61
2018-12-22T11:06:02.204Z,1001.67
2018-12-22T11:07:02.185Z,1001.74
2018-12-22T11:08:02.190Z,1001.74
2018-12-22T11:09:02.171Z,1001.76
2018-12-22T11:10:02.154Z,1001.83
2018-12-22T11:11:02.144Z,1001.85
2018-12-22T11:12:02.133Z,1001.89
2018-12-22T11:13:02.135Z,1001.91
2018-12-22T11:14:02.114Z,1001.86
2018-12-22T11:15:02.104Z,1001.88
2018-12-22T11:16:02.096Z,1001.93
2018-12-22T11:17:02.080Z,1001.96
2018-12-22T11:18:02.077Z,1001.93
2018-12-22T11:19:02.058Z,1001.91
2018-12-22T11:20:02.061Z,1001.90
2018-12-22T11:21:02.036Z,1001.94
2018-12-22T11:22:02.058Z,1001.92
2018-12-22T11:23:02.026Z,1001.87
2018-12-22T11:24:03.034Z,1001.85
2018-12-22T11:25:01.994Z,1001.95
2018-12-22T11:26:01.983Z,1001.95
2018-12-22T11:27:01.975Z,1001.91
2018-12-22T11:28:01.973Z,1001.99
2018-12-22T11:29:01.950Z,1001.96
2018-12-22T11:30:01.942Z,1001.95
2018-12-22T11:31:01.934Z,1002.02
2018-12-22T11:32:01.944Z,1002.04
2018-12-22T11:33:03.375Z,1002.03
2018-12-22T11:34:01.901Z,1002.08
2018-12-22T11:35:01.892Z,1002.05
2018-12-22T11:36:01.874Z,1002.12
2018-12-22T11:37:01.883Z,1002.08
2018-12-22T11:38:01.876Z,1002.12
2018-12-22T11:39:01.845Z,1002.14
2018-12-22T11:40:01.848Z,1002.16
2018-12-22T11:41:01.820Z,1002.23
2018-12-22T11:42:01.811Z,1002.26
2018-12-22T11:43:01.813Z,1002.29
2018-12-22T11:44:01.789Z,1002.35
2018-12-22T11:45:01.778Z,1002.33
2018-12-22T11:46:01.768Z,1002.32
2018-12-22T11:47:01.759Z,1002.35
2018-12-22T11:48:01.759Z,1002.33
2018-12-22T11:49:01.735Z,1002.33
2018-12-22T11:50:01.727Z,1002.34
2018-12-22T11:51:01.723Z,1002.41
2018-12-22T11:52:01.716Z,1002.42
2018-12-22T11:53:01.741Z,1002.38
2018-12-22T11:54:01.684Z,1002.41
2018-12-22T11:55:01.677Z,1002.44
2018-12-22T11:56:01.663Z,1002.46
2018-12-22T11:57:01.650Z,1002.48
2018-12-22T11:58:01.655Z,1002.52
2018-12-22T11:59:01.667Z,1002.52
2018-12-22T12:00:01.636Z,1002.51
2018-12-22T12:01:01.616Z,1002.56
2018-12-22T12:02:09.266Z,1002.55
2018-12-22T12:03:02.591Z,1002.66
2018-12-22T12:04:01.604Z,1002.66
2018-12-22T12:05:01.568Z,1002.68
2018-12-22T12:06:01.555Z,1002.71
2018-12-22T12:07:01.549Z,1002.77
2018-12-22T12:08:01.538Z,1002.78
2018-12-22T12:09:01.540Z,1002.78
2018-12-22T12:10:01.518Z,1002.81
2018-12-22T12:11:01.506Z,1002.82
2018-12-22T12:12:01.507Z,1002.86
2018-12-22T12:13:01.485Z,1002.93
2018-12-22T12:14:01.483Z,1002.91
2018-12-22T12:15:01.463Z,1002.94
2018-12-22T12:16:01.459Z,1003.01
2018-12-22T12:17:01.448Z,1003.04
2018-12-22T12:18:01.428Z,1003.09
2018-12-22T12:19:01.427Z,1003.12
2018-12-22T12:20:01.408Z,1003.19
2018-12-22T12:21:01.398Z,1003.22
2018-12-22T12:22:01.384Z,1003.28